Time;durP1;ratioP1;P1;durP2;ratioP2;P2;SDS_P1;SDS_P2;PMS_P1;PMS_P2;Temp;Humidity;BMP_temperature;BMP_pressure;BME280_temperature;BME280_humidity;BME280_pressure;Samples;Min_cycle;Max_cycle;Signal;HPM_P1;HPM_P2
2024/01/18 00:00:58;;;;;;;10.05;3.65;;;-0.80;99.90;;;;;;5036898;28;20397;-67
2024/01/18 00:03:25;;;;;;;7.80;3.88;;;-0.80;99.90;;;;;;5034913;28;20437;-67
2024/01/18 00:05:52;;;;;;;7.30;3.80;;;-0.90;99.90;;;;;;5036412;28;20471;-66
2024/01/18 00:08:19;;;;;;;10.02;3.70;;;-0.90;99.90;;;;;;5036055;28;20041;-67
2024/01/18 00:10:46;;;;;;;6.72;3.50;;;-0.90;99.90;;;;;;5036458;28;20097;-67
2024/01/18 00:13:13;;;;;;;7.38;3.25;;;-0.90;99.90;;;;;;5036071;28;20056;-66
2024/01/18 00:15:40;;;;;;;7.43;3.53;;;-0.90;99.90;;;;;;5036135;28;20060;-67
2024/01/18 00:18:07;;;;;;;5.95;3.25;;;-0.90;99.90;;;;;;5035899;28;20041;-67
2024/01/18 00:20:35;;;;;;;6.28;3.40;;;-1.00;99.90;;;;;;5035902;28;20062;-67
2024/01/18 00:23:02;;;;;;;6.22;3.50;;;-1.00;99.90;;;;;;5034956;28;20045;-66
2024/01/18 00:25:29;;;;;;;5.72;2.95;;;-1.00;99.90;;;;;;5034213;28;20068;-67
2024/01/18 00:27:56;;;;;;;8.63;3.35;;;-1.00;99.90;;;;;;5036269;28;20080;-66
2024/01/18 00:30:22;;;;;;;6.60;2.92;;;-1.00;99.90;;;;;;5035849;28;20045;-66
2024/01/18 00:32:49;;;;;;;6.10;2.85;;;-1.10;99.90;;;;;;5034779;28;20124;-66
2024/01/18 00:35:16;;;;;;;4.75;2.72;;;-1.10;99.90;;;;;;5035740;28;20045;-67
2024/01/18 00:37:43;;;;;;;7.85;2.90;;;-1.10;99.90;;;;;;5035993;28;20091;-66
2024/01/18 00:40:10;;;;;;;5.75;2.58;;;-1.10;99.90;;;;;;5036300;28;20041;-67
2024/01/18 00:42:37;;;;;;;4.40;2.58;;;-1.10;99.90;;;;;;5036119;28;20045;-67
2024/01/18 00:45:03;;;;;;;7.28;2.60;;;-1.20;99.90;;;;;;5035847;28;20466;-67
2024/01/18 00:47:30;;;;;;;5.50;2.67;;;-1.10;99.90;;;;;;5036068;28;20100;-65
2024/01/18 00:49:57;;;;;;;8.55;3.45;;;-1.10;99.90;;;;;;5035420;28;20048;-66
2024/01/18 00:52:24;;;;;;;4.20;2.50;;;-1.20;99.90;;;;;;5035812;28;20041;-65
2024/01/18 00:54:52;;;;;;;12.98;3.63;;;-1.20;99.90;;;;;;5035434;28;20045;-68
2024/01/18 00:57:18;;;;;;;6.75;2.90;;;-1.20;99.90;;;;;;5035426;28;20046;-66
2024/01/18 00:59:45;;;;;;;7.05;2.85;;;-1.20;99.90;;;;;;5035270;28;20475;-66
2024/01/18 01:02:12;;;;;;;7.72;3.17;;;-1.20;99.90;;;;;;5034108;28;20405;-66
2024/01/18 01:04:39;;;;;;;10.00;3.28;;;-1.20;99.90;;;;;;5035192;28;20073;-65
2024/01/18 01:07:06;;;;;;;6.70;3.00;;;-1.20;99.90;;;;;;5035238;28;20073;-66
2024/01/18 01:09:32;;;;;;;7.47;3.33;;;-1.30;99.90;;;;;;5034029;28;20103;-66
2024/01/18 01:11:59;;;;;;;9.05;3.17;;;-1.30;99.90;;;;;;5035219;28;20477;-66
2024/01/18 01:14:26;;;;;;;4.85;2.72;;;-1.30;99.90;;;;;;5034978;28;20048;-66
2024/01/18 01:16:53;;;;;;;6.30;2.92;;;-1.40;99.90;;;;;;5034895;28;20392;-66
2024/01/18 01:19:20;;;;;;;5.10;2.70;;;-1.40;99.90;;;;;;5033572;28;20067;-65
2024/01/18 01:21:47;;;;;;;7.70;2.90;;;-1.40;99.90;;;;;;5033773;28;20502;-65
2024/01/18 01:24:14;;;;;;;9.50;3.30;;;-1.40;99.90;;;;;;5034766;28;20103;-65
2024/01/18 01:26:40;;;;;;;6.68;2.63;;;-1.40;99.90;;;;;;5033572;28;20038;-66
2024/01/18 01:29:10;;;;;;;5.65;3.20;;;-1.40;99.90;;;;;;5034675;28;20049;-65
2024/01/18 01:31:37;;;;;;;6.32;3.28;;;-1.40;99.90;;;;;;5035082;28;20071;-66
2024/01/18 01:34:04;;;;;;;5.10;3.13;;;-1.50;99.90;;;;;;5034698;28;20482;-66
2024/01/18 01:36:31;;;;;;;5.50;3.30;;;-1.50;99.90;;;;;;5032485;28;20053;-65
2024/01/18 01:38:58;;;;;;;7.60;3.03;;;-1.50;99.90;;;;;;5034655;28;20386;-65
2024/01/18 01:41:24;;;;;;;10.77;3.30;;;-1.60;99.90;;;;;;5034533;28;20067;-65
2024/01/18 01:43:51;;;;;;;6.63;3.40;;;-1.60;99.90;;;;;;5033277;28;20063;-64
2024/01/18 01:46:19;;;;;;;7.72;2.85;;;-1.60;99.90;;;;;;5034517;28;20048;-65
2024/01/18 01:48:46;;;;;;;5.35;2.80;;;-1.60;99.90;;;;;;5034523;28;20095;-66
2024/01/18 01:51:13;;;;;;;6.43;3.10;;;-1.60;99.90;;;;;;5034478;28;20100;-65
2024/01/18 01:53:40;;;;;;;8.15;3.20;;;-1.60;99.90;;;;;;5033914;28;20505;-65
2024/01/18 01:56:07;;;;;;;7.18;3.15;;;-1.70;99.90;;;;;;5033949;28;20052;-64
2024/01/18 01:58:36;;;;;;;10.95;3.28;;;-1.70;99.90;;;;;;5034302;28;20081;-65
2024/01/18 02:01:02;;;;;;;5.25;3.30;;;-1.70;99.90;;;;;;5034442;28;20087;-65
2024/01/18 02:03:29;;;;;;;8.68;3.83;;;-1.80;99.90;;;;;;5034205;28;20077;-66
2024/01/18 02:05:56;;;;;;;8.98;3.75;;;-1.80;99.90;;;;;;5033999;28;20041;-64
2024/01/18 02:08:23;;;;;;;7.70;3.65;;;-1.80;99.90;;;;;;5033841;28;20046;-66
2024/01/18 02:10:50;;;;;;;6.30;3.45;;;-1.80;99.90;;;;;;5034013;28;20041;-65
2024/01/18 02:13:17;;;;;;;7.57;3.53;;;-1.80;99.90;;;;;;5032694;28;20083;-64
2024/01/18 02:15:44;;;;;;;6.88;3.92;;;-1.80;99.90;;;;;;5033520;28;20103;-65
2024/01/18 02:18:11;;;;;;;9.60;4.07;;;-1.90;99.90;;;;;;5033645;28;20402;-65
2024/01/18 02:20:37;;;;;;;7.10;3.83;;;-1.90;99.90;;;;;;5033836;28;20134;-65
2024/01/18 02:23:08;;;;;;;7.35;3.50;;;-1.90;99.90;;;;;;5033924;28;20538;-64
2024/01/18 02:25:35;;;;;;;9.02;3.90;;;-1.90;99.90;;;;;;5033723;28;20151;-64
2024/01/18 02:28:02;;;;;;;6.53;3.65;;;-1.90;99.90;;;;;;5032475;28;20423;-65
2024/01/18 02:30:28;;;;;;;7.75;3.92;;;-1.90;99.90;;;;;;5033662;28;20049;-64
2024/01/18 02:32:55;;;;;;;10.15;4.13;;;-2.00;99.90;;;;;;5033557;28;20494;-64
2024/01/18 02:35:22;;;;;;;9.00;4.43;;;-2.00;99.90;;;;;;5033552;28;20048;-64
2024/01/18 02:37:49;;;;;;;9.70;4.15;;;-2.00;99.90;;;;;;5033597;28;20041;-65
2024/01/18 02:40:16;;;;;;;7.10;4.10;;;-2.00;99.90;;;;;;5033651;28;20049;-64
2024/01/18 02:42:42;;;;;;;7.43;4.15;;;-2.00;99.90;;;;;;5033301;28;20095;-65
2024/01/18 02:45:09;;;;;;;10.60;4.13;;;-2.10;99.90;;;;;;5032097;28;20406;-65
2024/01/18 02:47:36;;;;;;;7.97;4.35;;;-2.10;99.90;;;;;;5033530;28;20076;-64
2024/01/18 02:50:04;;;;;;;8.30;4.13;;;-2.10;99.90;;;;;;5033423;28;20394;-64
2024/01/18 02:52:32;;;;;;;8.30;4.30;;;-2.10;99.90;;;;;;5033479;28;20039;-64
2024/01/18 02:54:59;;;;;;;7.68;4.05;;;-2.10;99.90;;;;;;5033429;28;20037;-65
2024/01/18 02:57:26;;;;;;;8.50;3.75;;;-2.20;99.90;;;;;;5033228;28;20046;-61
2024/01/18 02:59:53;;;;;;;7.57;4.03;;;-2.20;99.90;;;;;;5032270;28;20072;-61
2024/01/18 03:02:20;;;;;;;12.13;4.60;;;-2.20;99.90;;;;;;5033399;28;20048;-62
2024/01/18 03:04:46;;;;;;;6.50;4.38;;;-2.20;99.90;;;;;;5032159;28;20045;-60
2024/01/18 03:07:13;;;;;;;9.10;4.32;;;-2.20;99.90;;;;;;5031903;28;20046;-62
2024/01/18 03:09:40;;;;;;;10.77;5.07;;;-2.20;99.90;;;;;;5032317;28;20056;-62
2024/01/18 03:12:07;;;;;;;7.95;4.18;;;-2.30;99.90;;;;;;5033509;28;20041;-62
2024/01/18 03:14:34;;;;;;;7.65;4.55;;;-2.20;99.90;;;;;;5033087;28;20048;-62
2024/01/18 03:17:03;;;;;;;10.40;4.30;;;-2.20;99.90;;;;;;5033451;28;20057;-62
2024/01/18 03:19:30;;;;;;;8.90;4.13;;;-2.30;99.90;;;;;;5025565;28;20050;-62
2024/01/18 03:21:57;;;;;;;6.95;4.03;;;-2.30;99.90;;;;;;5013613;28;20042;-62
2024/01/18 03:24:24;;;;;;;7.03;4.47;;;-2.30;99.90;;;;;;5013562;28;20046;-62
2024/01/18 03:26:51;;;;;;;9.75;4.18;;;-2.30;99.90;;;;;;5013271;28;20069;-62
2024/01/18 03:29:18;;;;;;;8.90;4.25;;;-2.30;99.90;;;;;;5013561;28;20041;-62
2024/01/18 03:31:44;;;;;;;9.07;4.18;;;-2.30;99.90;;;;;;5013577;28;20045;-62
2024/01/18 03:34:11;;;;;;;7.72;4.60;;;-2.30;99.90;;;;;;5013255;28;20463;-62
2024/01/18 03:36:38;;;;;;;5.57;4.30;;;-2.40;99.90;;;;;;5013360;28;20075;-62
2024/01/18 03:39:06;;;;;;;8.85;4.53;;;-2.40;99.90;;;;;;5013421;28;20049;-62
2024/01/18 03:41:33;;;;;;;7.55;4.65;;;-2.40;99.90;;;;;;5013714;28;20049;-66
2024/01/18 03:44:00;;;;;;;6.80;3.85;;;-2.40;99.90;;;;;;5013458;28;20375;-66
2024/01/18 03:46:27;;;;;;;7.95;4.13;;;-2.50;99.90;;;;;;5013345;28;20041;-66
2024/01/18 03:48:54;;;;;;;7.40;4.50;;;-2.50;99.90;;;;;;5012009;28;20384;-66
2024/01/18 03:51:21;;;;;;;7.75;3.88;;;-2.50;99.90;;;;;;5013297;28;20034;-66
2024/01/18 03:53:48;;;;;;;8.63;4.50;;;-2.50;99.90;;;;;;5012871;28;20109;-66
2024/01/18 03:56:15;;;;;;;8.13;4.28;;;-2.50;99.90;;;;;;5011837;28;20042;-67
2024/01/18 03:58:41;;;;;;;8.05;3.83;;;-2.50;99.90;;;;;;5013739;28;20364;-66
2024/01/18 04:01:08;;;;;;;6.30;3.63;;;-2.50;99.90;;;;;;5016812;28;20100;-66
2024/01/18 04:03:35;;;;;;;9.40;3.83;;;-2.50;99.90;;;;;;5016250;28;20479;-66
2024/01/18 04:06:02;;;;;;;8.10;3.72;;;-2.50;99.90;;;;;;5016722;28;20069;-66
2024/01/18 04:08:29;;;;;;;7.20;3.70;;;-2.50;99.90;;;;;;5016450;28;20100;-66
2024/01/18 04:10:56;;;;;;;10.02;3.65;;;-2.50;99.90;;;;;;5016272;28;20042;-66
2024/01/18 04:13:23;;;;;;;8.77;4.25;;;-2.60;99.90;;;;;;5016592;28;20046;-66
2024/01/18 04:15:50;;;;;;;10.05;4.32;;;-2.60;99.90;;;;;;5015094;28;20085;-66
2024/01/18 04:18:16;;;;;;;7.35;4.05;;;-2.60;99.90;;;;;;5016685;28;20081;-66
2024/01/18 04:20:43;;;;;;;7.65;3.78;;;-2.60;99.90;;;;;;5016310;28;20054;-67
2024/01/18 04:23:10;;;;;;;9.75;4.55;;;-2.60;99.90;;;;;;4998621;28;20041;-66
2024/01/18 04:25:37;;;;;;;8.30;4.20;;;-2.60;99.90;;;;;;5016448;28;20040;-62
2024/01/18 04:28:04;;;;;;;11.65;4.70;;;-2.60;99.90;;;;;;5016413;28;20045;-62
2024/01/18 04:30:31;;;;;;;7.57;4.05;;;-2.60;99.90;;;;;;5016382;28;20108;-66
2024/01/18 04:32:58;;;;;;;7.88;3.70;;;-2.70;99.90;;;;;;5016396;28;20073;-66
2024/01/18 04:35:25;;;;;;;5.82;3.90;;;-2.70;99.90;;;;;;5015998;28;20418;-66
2024/01/18 04:37:51;;;;;;;7.75;3.80;;;-2.70;99.90;;;;;;5016340;28;20037;-62
2024/01/18 04:40:18;;;;;;;7.35;4.00;;;-2.70;99.90;;;;;;5015848;28;20042;-62
2024/01/18 04:42:45;;;;;;;6.40;3.83;;;-2.70;99.90;;;;;;5016114;28;20038;-62
2024/01/18 04:45:12;;;;;;;7.10;3.83;;;-2.70;99.90;;;;;;5015742;28;20030;-62
2024/01/18 04:47:39;;;;;;;6.82;4.05;;;-2.70;99.90;;;;;;5016035;28;20426;-62
2024/01/18 04:50:08;;;;;;;10.10;4.03;;;-2.70;99.90;;;;;;5015870;28;20538;-62
2024/01/18 04:52:34;;;;;;;10.05;3.70;;;-2.70;99.90;;;;;;5014641;28;20042;-62
2024/01/18 04:55:04;;;;;;;8.18;3.70;;;-2.70;99.90;;;;;;5014594;28;20428;-62
2024/01/18 04:57:31;;;;;;;5.97;3.75;;;-2.70;99.90;;;;;;5015873;28;20498;-65
2024/01/18 04:59:58;;;;;;;7.57;4.32;;;-2.70;99.90;;;;;;5015460;28;20050;-65
2024/01/18 05:02:25;;;;;;;8.25;3.80;;;-2.70;99.90;;;;;;5015830;28;20041;-65
2024/01/18 05:04:52;;;;;;;7.85;4.47;;;-2.70;99.90;;;;;;5015245;28;20487;-66
2024/01/18 05:07:19;;;;;;;7.53;3.80;;;-2.70;99.90;;;;;;5015419;28;20501;-65
2024/01/18 05:09:46;;;;;;;10.68;3.97;;;-2.80;99.90;;;;;;5015526;28;20056;-65
2024/01/18 05:12:13;;;;;;;7.43;4.30;;;-2.80;99.90;;;;;;5015276;28;20034;-66
2024/01/18 05:14:40;;;;;;;5.63;3.75;;;-2.80;99.90;;;;;;5015365;28;20080;-65
2024/01/18 05:17:10;;;;;;;8.10;3.60;;;-2.80;99.90;;;;;;5015650;28;20474;-66
2024/01/18 05:19:38;;;;;;;9.60;4.05;;;-2.90;99.90;;;;;;5015059;28;20060;-66
2024/01/18 05:22:05;;;;;;;6.60;4.18;;;-2.90;99.90;;;;;;5015079;28;20049;-66
2024/01/18 05:24:32;;;;;;;10.38;4.25;;;-2.90;99.90;;;;;;5015052;28;20038;-66
2024/01/18 05:26:59;;;;;;;9.65;4.05;;;-3.00;99.90;;;;;;5014964;28;20038;-66
2024/01/18 05:29:26;;;;;;;9.30;3.92;;;-3.10;99.90;;;;;;5015180;28;20117;-66
2024/01/18 05:31:53;;;;;;;6.55;4.13;;;-3.10;99.90;;;;;;5015138;28;20507;-66
2024/01/18 05:34:20;;;;;;;10.25;4.65;;;-3.10;99.90;;;;;;5015159;28;20110;-65
2024/01/18 05:36:47;;;;;;;8.73;4.00;;;-3.10;99.90;;;;;;5015123;28;20054;-66
2024/01/18 05:39:14;;;;;;;7.55;4.07;;;-3.10;99.90;;;;;;5015071;28;20079;-65
2024/01/18 05:41:41;;;;;;;11.57;3.90;;;-3.10;99.90;;;;;;5014804;28;20514;-66
2024/01/18 05:44:09;;;;;;;10.43;4.35;;;-3.10;99.90;;;;;;5014960;28;20486;-65
2024/01/18 05:46:37;;;;;;;7.80;3.97;;;-3.10;99.90;;;;;;5014909;28;20042;-65
2024/01/18 05:49:04;;;;;;;6.80;4.10;;;-3.20;99.90;;;;;;5014859;28;20577;-65
2024/01/18 05:51:31;;;;;;;10.15;3.90;;;-3.20;99.90;;;;;;5014660;28;20046;-65
2024/01/18 05:53:58;;;;;;;6.47;3.72;;;-3.20;99.90;;;;;;5014697;28;20424;-65
2024/01/18 05:56:26;;;;;;;7.97;4.05;;;-3.30;99.90;;;;;;5014585;28;20488;-65
2024/01/18 05:58:53;;;;;;;8.27;4.65;;;-3.30;99.90;;;;;;5014636;28;20137;-65
2024/01/18 06:01:21;;;;;;;7.50;3.88;;;-3.30;99.90;;;;;;5014471;28;20086;-65
2024/01/18 06:03:48;;;;;;;11.27;4.35;;;-3.30;99.90;;;;;;5014403;28;20049;-65
2024/01/18 06:06:15;;;;;;;6.32;3.60;;;-3.30;99.90;;;;;;5014538;28;20042;-65
2024/01/18 06:08:42;;;;;;;9.32;4.47;;;-3.30;99.90;;;;;;5014603;28;20057;-65
2024/01/18 06:11:09;;;;;;;11.48;5.45;;;-3.30;99.90;;;;;;4996939;28;20480;-65
2024/01/18 06:13:39;;;;;;;7.07;3.88;;;-3.30;99.90;;;;;;5012952;28;20049;-65
2024/01/18 06:16:06;;;;;;;7.82;4.00;;;-3.30;99.90;;;;;;5012845;28;20049;-65
2024/01/18 06:18:33;;;;;;;10.05;5.55;;;-3.40;99.90;;;;;;5014435;28;20041;-65
2024/01/18 06:21:00;;;;;;;9.00;4.70;;;-3.40;99.90;;;;;;5013716;28;20392;-65
2024/01/18 06:23:26;;;;;;;8.38;4.57;;;-3.50;99.90;;;;;;5012703;28;20076;-65
2024/01/18 06:25:54;;;;;;;8.95;3.90;;;-3.50;99.90;;;;;;5013718;28;20112;-65
2024/01/18 06:28:21;;;;;;;9.43;4.13;;;-3.50;99.90;;;;;;5013872;28;20037;-65
2024/01/18 06:30:48;;;;;;;9.77;4.30;;;-3.50;99.90;;;;;;5014281;28;20052;-65
2024/01/18 06:33:15;;;;;;;7.43;4.55;;;-3.50;99.90;;;;;;5013916;28;20038;-65
2024/01/18 06:35:42;;;;;;;7.32;3.42;;;-3.50;99.90;;;;;;5014146;28;20044;-65
2024/01/18 06:38:09;;;;;;;9.68;4.07;;;-3.50;99.90;;;;;;5014094;28;20038;-65
2024/01/18 06:40:35;;;;;;;9.40;3.90;;;-3.60;99.90;;;;;;5013732;28;20531;-65
2024/01/18 06:43:03;;;;;;;10.55;4.45;;;-3.60;99.90;;;;;;5013812;28;20049;-65
2024/01/18 06:45:30;;;;;;;10.25;3.88;;;-3.60;99.90;;;;;;5012491;28;20050;-65
2024/01/18 06:47:56;;;;;;;10.23;4.75;;;-3.60;99.90;;;;;;5013665;28;20044;-64
2024/01/18 06:50:23;;;;;;;10.75;4.20;;;-3.60;99.90;;;;;;5013869;28;20045;-65
2024/01/18 06:52:51;;;;;;;9.82;4.30;;;-3.60;99.90;;;;;;5013541;28;20096;-62
2024/01/18 06:55:18;;;;;;;13.52;4.40;;;-3.70;99.90;;;;;;5013266;28;20141;-62
2024/01/18 06:57:45;;;;;;;10.43;4.05;;;-3.70;99.90;;;;;;5013834;28;20468;-62
2024/01/18 07:00:12;;;;;;;13.02;4.28;;;-3.70;99.90;;;;;;5013810;28;20042;-62
2024/01/18 07:02:39;;;;;;;7.40;4.22;;;-3.70;99.90;;;;;;5030301;28;20045;-62
2024/01/18 07:05:06;;;;;;;8.48;4.65;;;-3.70;99.90;;;;;;5033452;28;20045;-62
2024/01/18 07:07:33;;;;;;;8.23;4.10;;;-3.70;99.90;;;;;;5032788;28;20045;-62
2024/01/18 07:09:59;;;;;;;7.00;4.05;;;-3.70;99.90;;;;;;5033215;28;20471;-62
2024/01/18 07:12:26;;;;;;;9.40;4.78;;;-3.70;99.90;;;;;;5033325;28;20470;-62
2024/01/18 07:14:53;;;;;;;11.50;4.45;;;-3.70;99.90;;;;;;5033106;28;20390;-61
2024/01/18 07:17:20;;;;;;;9.13;4.80;;;-3.70;99.90;;;;;;5031616;28;20402;-62
2024/01/18 07:19:46;;;;;;;12.32;4.65;;;-3.70;99.90;;;;;;5032984;28;20056;-63
2024/01/18 07:22:13;;;;;;;9.85;5.25;;;-3.70;99.90;;;;;;5032202;28;20037;-63
2024/01/18 07:24:40;;;;;;;9.82;4.88;;;-3.70;99.90;;;;;;5033328;28;20099;-63
2024/01/18 07:27:09;;;;;;;7.13;4.53;;;-3.80;99.90;;;;;;5033285;28;20046;-63
2024/01/18 07:29:36;;;;;;;7.85;4.70;;;-3.70;99.90;;;;;;5033113;28;20034;-62
2024/01/18 07:32:03;;;;;;;7.60;4.05;;;-3.70;99.90;;;;;;5032865;28;20072;-62
2024/01/18 07:34:30;;;;;;;9.60;4.80;;;-3.80;99.90;;;;;;5035036;28;20467;-63
2024/01/18 07:36:57;;;;;;;6.57;4.22;;;-3.80;99.90;;;;;;5037142;28;20183;-63
2024/01/18 07:39:24;;;;;;;11.75;5.22;;;-3.80;99.90;;;;;;5036945;28;20049;-64
2024/01/18 07:41:50;;;;;;;9.23;4.47;;;-3.80;99.90;;;;;;5036865;28;20041;-63
2024/01/18 07:44:17;;;;;;;9.63;4.35;;;-3.80;99.90;;;;;;5037082;28;20119;-63
2024/01/18 07:46:44;;;;;;;6.35;4.22;;;-3.80;99.90;;;;;;5036819;28;20045;-62
2024/01/18 07:49:11;;;;;;;9.18;4.97;;;-3.80;99.90;;;;;;5036950;28;20099;-62
2024/01/18 07:51:38;;;;;;;9.27;4.95;;;-3.80;99.90;;;;;;5036849;28;20490;-62
2024/01/18 07:54:05;;;;;;;9.95;5.80;;;-3.90;99.90;;;;;;5035329;28;20503;-63
2024/01/18 07:56:32;;;;;;;10.60;5.32;;;-3.90;99.90;;;;;;5036340;28;20044;-62
2024/01/18 07:58:59;;;;;;;10.25;5.00;;;-3.80;99.90;;;;;;5036584;28;20038;-62
2024/01/18 08:01:25;;;;;;;10.48;5.18;;;-3.80;99.90;;;;;;5036447;28;20124;-62
2024/01/18 08:03:53;;;;;;;13.75;5.82;;;-3.80;99.90;;;;;;5036085;28;20540;-66
2024/01/18 08:06:20;;;;;;;9.30;5.03;;;-3.80;99.90;;;;;;5036376;28;20491;-66
2024/01/18 08:08:47;;;;;;;11.77;6.03;;;-3.80;99.90;;;;;;5036372;28;20448;-61
2024/01/18 08:11:14;;;;;;;13.95;5.57;;;-3.90;99.90;;;;;;5036072;28;20041;-61
2024/01/18 08:13:41;;;;;;;10.60;6.35;;;-3.80;99.90;;;;;;5036260;28;20083;-61
2024/01/18 08:16:08;;;;;;;12.77;6.65;;;-3.80;99.90;;;;;;5036140;28;20045;-61
2024/01/18 08:18:36;;;;;;;12.43;5.93;;;-3.80;99.90;;;;;;5036118;28;20041;-61
2024/01/18 08:21:03;;;;;;;11.52;5.57;;;-3.80;99.90;;;;;;5034508;28;20049;-60
2024/01/18 08:23:35;;;;;;;11.68;5.40;;;-3.80;99.90;;;;;;5036585;28;20045;-61
2024/01/18 08:26:01;;;;;;;10.07;5.40;;;-3.80;99.90;;;;;;5035957;28;20056;-61
2024/01/18 08:28:28;;;;;;;9.18;5.15;;;-3.80;99.90;;;;;;5035884;28;20395;-62
2024/01/18 08:30:57;;;;;;;13.60;5.85;;;-3.80;99.90;;;;;;5036288;28;20355;-62
2024/01/18 08:33:24;;;;;;;8.38;5.90;;;-3.80;99.90;;;;;;5035290;28;20117;-62
2024/01/18 08:35:51;;;;;;;14.57;6.57;;;-3.80;99.90;;;;;;5035054;28;20043;-62
2024/01/18 08:38:20;;;;;;;9.68;5.72;;;-3.80;99.90;;;;;;5035857;28;20045;-63
2024/01/18 08:40:47;;;;;;;15.68;5.93;;;-3.80;99.90;;;;;;5035438;28;20512;-63
2024/01/18 08:43:14;;;;;;;12.25;5.97;;;-3.80;99.90;;;;;;5034665;28;20053;-64
2024/01/18 08:45:41;;;;;;;10.73;6.05;;;-3.80;99.90;;;;;;5035421;28;20041;-64
2024/01/18 08:48:09;;;;;;;11.48;6.03;;;-3.70;99.90;;;;;;5035800;28;20467;-64
2024/01/18 08:50:37;;;;;;;12.10;5.82;;;-3.70;99.90;;;;;;5035971;28;20478;-63
2024/01/18 08:53:06;;;;;;;11.10;5.57;;;-3.70;99.90;;;;;;5035669;28;20383;-63
2024/01/18 08:55:33;;;;;;;11.73;5.95;;;-3.70;99.90;;;;;;5034376;28;20475;-64
2024/01/18 08:58:01;;;;;;;12.23;5.75;;;-3.70;99.90;;;;;;5035429;28;20129;-64
2024/01/18 09:00:28;;;;;;;10.05;6.15;;;-3.60;99.90;;;;;;5035624;28;20045;-63
2024/01/18 09:02:55;;;;;;;11.27;6.20;;;-3.60;99.90;;;;;;5035402;28;20047;-64
2024/01/18 09:05:22;;;;;;;12.35;6.28;;;-3.60;99.90;;;;;;5035282;28;20042;-64
2024/01/18 09:07:49;;;;;;;10.38;6.00;;;-3.50;99.90;;;;;;5035072;28;20497;-63
2024/01/18 09:10:16;;;;;;;16.05;6.13;;;-3.50;99.90;;;;;;5035379;28;20112;-64
2024/01/18 09:12:45;;;;;;;14.77;6.40;;;-3.50;99.90;;;;;;5035276;28;20029;-64
2024/01/18 09:15:12;;;;;;;10.32;5.82;;;-3.40;99.90;;;;;;5034681;28;20060;-66
2024/01/18 09:17:39;;;;;;;8.20;5.47;;;-3.40;99.90;;;;;;5035006;28;20099;-64
2024/01/18 09:20:06;;;;;;;13.13;6.10;;;-3.30;99.90;;;;;;5035028;28;20127;-61
2024/01/18 09:22:33;;;;;;;10.80;6.00;;;-3.30;99.90;;;;;;5023448;28;20069;-61
2024/01/18 09:25:01;;;;;;;9.85;5.55;;;-3.30;99.90;;;;;;5026535;28;20099;-63
2024/01/18 09:27:28;;;;;;;12.00;5.43;;;-3.20;99.90;;;;;;5022094;28;20095;-65
2024/01/18 09:29:55;;;;;;;9.45;5.68;;;-3.10;99.90;;;;;;5033595;28;20033;-66
2024/01/18 09:32:22;;;;;;;10.02;5.82;;;-3.10;99.90;;;;;;5033802;28;20030;-65
2024/01/18 09:34:49;;;;;;;13.93;5.97;;;-3.00;99.90;;;;;;5034101;28;20133;-66
2024/01/18 09:37:17;;;;;;;13.30;6.35;;;-3.00;99.90;;;;;;5030087;28;20100;-65
2024/01/18 09:39:45;;;;;;;12.32;5.95;;;-3.00;99.90;;;;;;5014452;28;20069;-66
2024/01/18 09:42:12;;;;;;;15.50;7.43;;;-2.90;99.90;;;;;;5014434;28;20038;-66
2024/01/18 09:44:39;;;;;;;13.57;6.28;;;-2.80;99.90;;;;;;5014302;28;20049;-65
2024/01/18 09:47:07;;;;;;;14.75;7.63;;;-2.80;99.90;;;;;;5013835;28;20490;-66
2024/01/18 09:49:33;;;;;;;15.30;6.43;;;-2.70;99.90;;;;;;5013900;28;20046;-65
2024/01/18 09:52:00;;;;;;;9.98;4.97;;;-2.70;99.90;;;;;;5014103;28;20073;-60
2024/01/18 09:54:29;;;;;;;11.63;5.18;;;-2.60;99.90;;;;;;5013794;28;20475;-66
2024/01/18 09:56:56;;;;;;;12.52;5.43;;;-2.60;99.90;;;;;;5013010;28;20072;-65
2024/01/18 09:59:23;;;;;;;11.43;5.13;;;-2.50;99.90;;;;;;5013763;28;20045;-66
2024/01/18 10:01:49;;;;;;;12.10;5.70;;;-2.50;99.90;;;;;;5013735;28;20046;-66
2024/01/18 10:04:16;;;;;;;8.80;5.10;;;-2.40;99.90;;;;;;5013914;28;20372;-65
2024/01/18 10:06:43;;;;;;;11.10;5.50;;;-2.40;99.90;;;;;;5013687;28;20414;-65
2024/01/18 10:09:19;;;;;;;12.63;5.47;;;-2.30;99.90;;;;;;5013371;28;20038;-65
2024/01/18 10:11:46;;;;;;;;;;;-2.30;99.90;;;;;;5014069;28;20049;-65
2024/01/18 10:14:13;;;;;;;9.32;5.45;;;-2.20;99.90;;;;;;5013588;28;20032;-65
2024/01/18 10:16:40;;;;;;;10.05;5.55;;;-2.20;99.90;;;;;;5013518;28;20168;-65
2024/01/18 10:19:07;;;;;;;12.88;5.65;;;-2.10;99.90;;;;;;5013260;28;20050;-67
2024/01/18 10:21:34;;;;;;;14.88;5.53;;;-2.10;99.90;;;;;;5013440;28;20125;-66
2024/01/18 10:24:01;;;;;;;16.77;6.70;;;-2.10;99.90;;;;;;5013247;28;20486;-65
2024/01/18 10:26:27;;;;;;;14.10;6.93;;;-2.00;99.90;;;;;;5013354;28;20046;-65
2024/01/18 10:28:54;;;;;;;13.68;6.78;;;-2.00;99.90;;;;;;5013129;28;20038;-66
2024/01/18 10:31:21;;;;;;;12.02;6.43;;;-1.90;99.90;;;;;;5014067;28;20387;-64
2024/01/18 10:33:48;;;;;;;11.20;5.25;;;-1.80;99.90;;;;;;4996407;28;20418;-64
2024/01/18 10:36:15;;;;;;;12.05;6.20;;;-1.80;99.90;;;;;;5014069;28;20529;-64
2024/01/18 10:38:41;;;;;;;9.90;5.28;;;-1.80;99.90;;;;;;5013955;28;20046;-63
2024/01/18 10:41:08;;;;;;;9.75;4.85;;;-1.70;99.90;;;;;;5013750;28;20120;-64
2024/01/18 10:43:35;;;;;;;13.02;5.35;;;-1.60;99.90;;;;;;5013744;28;20471;-65
2024/01/18 10:46:02;;;;;;;15.85;5.68;;;-1.60;99.90;;;;;;5013958;28;20045;-66
2024/01/18 10:48:29;;;;;;;9.95;5.00;;;-1.50;99.90;;;;;;5013895;28;20439;-65
2024/01/18 10:50:56;;;;;;;12.23;5.72;;;-1.50;99.90;;;;;;5013804;28;20053;-62
2024/01/18 10:53:22;;;;;;;9.68;5.43;;;-1.40;99.90;;;;;;5012536;28;20049;-61
2024/01/18 10:55:49;;;;;;;8.60;5.35;;;-1.40;99.90;;;;;;5012079;28;20042;-62
2024/01/18 10:58:16;;;;;;;12.88;6.68;;;-1.40;99.90;;;;;;5013306;28;20052;-62
2024/01/18 11:00:43;;;;;;;10.57;5.65;;;-1.30;99.90;;;;;;5013311;28;20414;-62
2024/01/18 11:03:11;;;;;;;15.40;5.50;;;-1.20;99.90;;;;;;5013230;28;20037;-62
2024/01/18 11:05:39;;;;;;;9.07;5.90;;;-1.20;99.90;;;;;;5012396;28;20046;-62
2024/01/18 11:08:06;;;;;;;14.95;6.10;;;-1.20;99.90;;;;;;5013157;28;20116;-62
2024/01/18 11:10:32;;;;;;;9.80;5.97;;;-1.10;99.90;;;;;;5013506;28;20042;-60
2024/01/18 11:12:59;;;;;;;13.85;5.80;;;-1.00;99.90;;;;;;5013297;28;20045;-63
2024/01/18 11:15:26;;;;;;;14.40;6.13;;;-1.00;99.90;;;;;;5013514;28;20050;-64
2024/01/18 11:17:58;;;;;;;14.98;6.28;;;-1.00;99.90;;;;;;5013701;28;20100;-64
2024/01/18 11:20:25;;;;;;;18.10;7.22;;;-0.90;99.90;;;;;;5013101;28;20107;-65
2024/01/18 11:22:53;;;;;;;13.43;6.50;;;-0.90;99.90;;;;;;5013622;28;20049;-65
2024/01/18 11:25:20;;;;;;;14.45;6.80;;;-0.80;99.90;;;;;;5013201;28;20042;-64
2024/01/18 11:27:47;;;;;;;12.68;6.10;;;-0.70;99.90;;;;;;5013241;28;20042;-62
2024/01/18 11:30:14;;;;;;;12.38;5.97;;;-0.60;99.90;;;;;;4995871;28;20061;-65
2024/01/18 11:32:40;;;;;;;14.68;5.60;;;-0.50;99.90;;;;;;5013432;28;20073;-63
2024/01/18 11:35:08;;;;;;;13.85;5.70;;;-0.40;99.90;;;;;;5013279;28;20543;-62
2024/01/18 11:37:35;;;;;;;11.63;5.32;;;-0.40;99.90;;;;;;5013271;28;20121;-61
2024/01/18 11:40:05;;;;;;;11.88;5.70;;;-0.40;99.90;;;;;;5012965;28;20483;-60
2024/01/18 11:42:33;;;;;;;11.45;6.18;;;-0.30;99.90;;;;;;5013101;28;20077;-61
2024/01/18 11:45:00;;;;;;;10.48;5.82;;;-0.20;99.90;;;;;;5013055;28;20148;-61
2024/01/18 11:47:26;;;;;;;10.45;6.00;;;-0.20;99.90;;;;;;5011759;28;20040;-59
2024/01/18 11:49:53;;;;;;;11.88;6.03;;;-0.10;99.90;;;;;;5013410;28;20129;-62
2024/01/18 11:52:23;;;;;;;9.38;5.65;;;-0.10;99.90;;;;;;5013229;28;20038;-66
2024/01/18 11:54:50;;;;;;;12.13;6.50;;;0.00;99.90;;;;;;5012838;28;20073;-73
2024/01/18 11:57:17;;;;;;;13.00;6.35;;;0.00;99.90;;;;;;5011843;28;20066;-70
2024/01/18 11:59:45;;;;;;;10.30;6.45;;;0.00;99.90;;;;;;5012906;28;20415;-71
2024/01/18 12:02:12;;;;;;;10.95;6.25;;;0.10;99.90;;;;;;5013115;28;20084;-68
2024/01/18 12:04:39;;;;;;;12.93;6.50;;;0.20;99.90;;;;;;5012897;28;20053;-67
2024/01/18 12:07:06;;;;;;;19.77;7.22;;;0.20;99.90;;;;;;5012746;28;20046;-64
2024/01/18 12:09:33;;;;;;;12.63;6.40;;;0.30;99.90;;;;;;5012631;28;20045;-66
2024/01/18 12:12:00;;;;;;;15.20;6.63;;;0.30;99.90;;;;;;5012739;28;20053;-65
2024/01/18 12:14:27;;;;;;;12.88;6.35;;;0.40;99.90;;;;;;5013094;28;20046;-64
2024/01/18 12:16:54;;;;;;;11.45;6.07;;;0.40;99.90;;;;;;5026966;28;20123;-65
2024/01/18 12:19:20;;;;;;;9.55;5.95;;;0.50;99.90;;;;;;5032266;28;20388;-65
2024/01/18 12:21:47;;;;;;;10.98;6.88;;;0.60;99.90;;;;;;5034939;28;20046;-69
2024/01/18 12:24:14;;;;;;;15.88;7.50;;;0.70;99.90;;;;;;5034730;28;20052;-69
2024/01/18 12:26:41;;;;;;;10.68;6.22;;;0.70;99.90;;;;;;5035056;28;20072;-68
2024/01/18 12:29:08;;;;;;;13.90;6.93;;;0.70;99.90;;;;;;5035646;28;20041;-68
2024/01/18 12:31:35;;;;;;;10.48;7.38;;;0.70;99.90;;;;;;5035867;28;20042;-68
2024/01/18 12:34:02;;;;;;;12.48;5.93;;;0.80;99.90;;;;;;5034911;28;20387;-69
2024/01/18 12:36:29;;;;;;;15.35;6.97;;;0.80;99.90;;;;;;5036183;28;20095;-69
2024/01/18 12:38:56;;;;;;;12.88;7.57;;;0.80;99.90;;;;;;5035635;28;20517;-69
2024/01/18 12:41:23;;;;;;;13.00;6.57;;;0.90;99.90;;;;;;5036112;28;20517;-68